createdAt,value
2022-10-23T00:00:39.180Z,97.72
2022-10-23T00:03:06.158Z,97.06
2022-10-23T00:05:32.881Z,97.73
2022-10-23T00:08:00.861Z,97.12
2022-10-23T00:10:28.333Z,97.23
2022-10-23T00:12:55.404Z,97.11
2022-10-23T00:15:23.350Z,97.44
2022-10-23T00:17:50.209Z,97.03
2022-10-23T00:20:17.338Z,97.15
2022-10-23T00:22:44.013Z,97.22
2022-10-23T00:25:11.017Z,97.13
2022-10-23T00:27:37.659Z,97.23
2022-10-23T00:30:05.819Z,96.84
2022-10-23T00:35:04.129Z,97.20
2022-10-23T00:37:31.257Z,97.37
2022-10-23T00:39:57.844Z,97.18
2022-10-23T00:42:24.501Z,96.77
2022-10-23T00:44:50.894Z,96.80
2022-10-23T00:47:18.245Z,96.89
2022-10-23T00:49:44.733Z,97.45
2022-10-23T00:52:13.522Z,97.11
2022-10-23T00:54:42.187Z,97.25
2022-10-23T00:57:13.323Z,97.31
2022-10-23T00:59:40.984Z,97.76
2022-10-23T01:02:08.013Z,96.90
2022-10-23T01:04:35.014Z,97.11
2022-10-23T01:07:04.473Z,97.02
2022-10-23T01:09:45.966Z,97.13
2022-10-23T01:13:29.582Z,97.23
2022-10-23T01:16:10.962Z,97.03
2022-10-23T01:18:46.509Z,97.34
2022-10-23T01:21:29.453Z,97.04
2022-10-23T01:24:11.088Z,97.22
2022-10-23T01:26:49.632Z,97.60
2022-10-23T01:29:49.486Z,97.37
2022-10-23T01:32:40.509Z,97.54
2022-10-23T01:43:01.983Z,96.43
2022-10-23T01:45:31.573Z,96.59
2022-10-23T01:48:00.840Z,96.28
2022-10-23T01:50:30.227Z,96.54
2022-10-23T01:52:57.128Z,96.92
2022-10-23T01:55:25.129Z,97.24
2022-10-23T01:57:53.457Z,97.16
2022-10-23T02:00:20.921Z,97.15
2022-10-23T02:02:50.230Z,96.90
2022-10-23T02:05:28.949Z,96.91
2022-10-23T02:07:56.235Z,97.24
2022-10-23T02:10:31.415Z,96.96
2022-10-23T02:13:18.463Z,96.57
2022-10-23T02:15:51.867Z,96.86
2022-10-23T02:18:44.517Z,97.20
2022-10-23T02:21:16.757Z,97.01
2022-10-23T02:24:07.506Z,97.58
2022-10-23T02:26:38.524Z,97.63
2022-10-23T02:29:14.575Z,97.54
2022-10-23T02:31:41.194Z,97.30
2022-10-23T02:34:07.678Z,97.73
2022-10-23T02:36:34.296Z,97.86
2022-10-23T02:39:00.758Z,97.11
2022-10-23T02:41:59.966Z,97.29
2022-10-23T02:44:55.546Z,97.15
2022-10-23T02:48:15.882Z,97.32
2022-10-23T02:50:56.988Z,97.17
2022-10-23T02:53:31.069Z,97.29
2022-10-23T02:56:14.379Z,97.05
2022-10-23T02:59:16.298Z,97.61
2022-10-23T03:01:48.614Z,97.33
2022-10-23T03:04:17.604Z,97.29
2022-10-23T03:06:44.978Z,97.89
2022-10-23T03:09:12.021Z,96.99
2022-10-23T03:11:38.451Z,97.47
2022-10-23T03:14:04.889Z,97.51
2022-10-23T03:16:31.301Z,97.25
2022-10-23T03:18:57.870Z,97.33
2022-10-23T03:21:24.521Z,97.29
2022-10-23T03:23:50.962Z,97.17
2022-10-23T03:26:17.417Z,97.17
2022-10-23T03:28:43.863Z,96.76
2022-10-23T03:31:10.471Z,97.66
2022-10-23T03:33:37.050Z,97.32
2022-10-23T03:36:03.651Z,97.31
2022-10-23T03:38:30.135Z,97.14
2022-10-23T03:40:56.572Z,97.51
2022-10-23T03:43:23.061Z,97.58
2022-10-23T03:45:50.907Z,97.23
2022-10-23T03:48:17.885Z,97.34
2022-10-23T03:50:44.356Z,97.38
2022-10-23T03:53:10.835Z,97.55
2022-10-23T03:55:37.328Z,97.07
2022-10-23T03:58:03.789Z,97.72
2022-10-23T04:00:30.306Z,97.83
2022-10-23T04:02:56.805Z,98.18
2022-10-23T04:05:23.284Z,98.01
2022-10-23T04:07:49.687Z,98.19
2022-10-23T04:10:16.248Z,98.28
2022-10-23T04:12:43.034Z,98.20
2022-10-23T04:15:09.996Z,97.76
2022-10-23T04:17:36.465Z,98.15
2022-10-23T04:20:03.214Z,98.10
2022-10-23T04:22:29.840Z,97.94
2022-10-23T04:24:56.397Z,98.11
2022-10-23T04:27:22.895Z,97.97
2022-10-23T04:29:49.480Z,97.99
2022-10-23T04:32:16.116Z,97.98
2022-10-23T04:34:42.588Z,97.91
2022-10-23T04:37:09.223Z,98.26
2022-10-23T04:39:35.701Z,98.36
2022-10-23T04:42:02.189Z,98.25
2022-10-23T04:44:28.639Z,98.03
2022-10-23T04:46:55.211Z,97.58
2022-10-23T04:49:21.676Z,98.10
2022-10-23T04:51:48.140Z,98.35
2022-10-23T04:54:14.638Z,98.28
2022-10-23T04:56:41.112Z,97.84
2022-10-23T04:59:07.607Z,98.07
2022-10-23T05:01:34.170Z,97.85
2022-10-23T05:04:00.664Z,98.18
2022-10-23T05:06:27.205Z,97.91
2022-10-23T05:08:53.702Z,98.53
2022-10-23T05:15:11.826Z,98.70
2022-10-23T05:17:41.730Z,98.72
2022-10-23T05:20:12.750Z,99.04
2022-10-23T05:22:42.340Z,98.71
2022-10-23T05:25:09.778Z,98.59
2022-10-23T05:27:36.208Z,98.62
2022-10-23T05:30:02.679Z,98.77
2022-10-23T05:32:31.919Z,98.50
2022-10-23T05:35:00.791Z,98.71
2022-10-23T05:37:27.524Z,98.75
2022-10-23T05:39:54.028Z,99.50
2022-10-23T05:42:20.431Z,99.17
2022-10-23T05:44:46.887Z,99.37
2022-10-23T05:47:13.350Z,99.39
2022-10-23T05:49:39.820Z,99.51
2022-10-23T05:52:06.255Z,99.84
2022-10-23T05:54:32.816Z,99.92
2022-10-23T05:56:59.261Z,99.39
2022-10-23T05:59:25.924Z,99.49
2022-10-23T06:01:52.433Z,99.19
2022-10-23T06:04:19.109Z,98.92
2022-10-23T06:06:52.742Z,98.87
2022-10-23T06:29:41.587Z,98.58
2022-10-23T07:12:29.623Z,98.73
2022-10-23T07:39:18.699Z,98.61
2022-10-23T07:50:52.775Z,98.86
2022-10-23T07:57:12.007Z,99.35
2022-10-23T08:03:33.493Z,100.00
2022-10-23T08:10:13.625Z,100.00
2022-10-23T08:16:22.837Z,100.00
2022-10-23T08:23:20.384Z,100.00
2022-10-23T08:29:37.677Z,100.00
2022-10-23T08:32:04.398Z,100.00
2022-10-23T08:34:31.415Z,100.00
2022-10-23T08:37:23.726Z,100.00
2022-10-23T08:48:15.306Z,100.00
2022-10-23T08:50:45.236Z,100.00
2022-10-23T08:53:18.995Z,100.00
2022-10-23T08:56:01.820Z,100.00
2022-10-23T09:06:49.612Z,100.00
2022-10-23T09:14:28.918Z,99.59
2022-10-23T09:17:23.365Z,99.21
2022-10-23T09:20:05.389Z,99.16
2022-10-23T09:22:31.906Z,98.58
2022-10-23T09:24:58.336Z,98.07
2022-10-23T09:27:24.842Z,97.64
2022-10-23T09:29:54.482Z,97.13
2022-10-23T09:32:36.934Z,97.38
2022-10-23T09:35:05.513Z,96.96
2022-10-23T09:37:35.933Z,96.66
2022-10-23T09:40:18.023Z,96.81
2022-10-23T09:43:04.013Z,96.39
2022-10-23T09:45:35.221Z,96.21
2022-10-23T09:48:19.226Z,96.41
2022-10-23T09:51:15.901Z,96.37
2022-10-23T09:54:00.306Z,96.61
2022-10-23T09:56:35.212Z,96.55
2022-10-23T09:59:23.949Z,96.99
2022-10-23T10:02:03.980Z,96.66
2022-10-23T10:04:39.023Z,96.55
2022-10-23T10:07:19.503Z,96.03
2022-10-23T10:09:46.122Z,95.43
2022-10-23T10:12:38.490Z,95.89
2022-10-23T10:15:18.232Z,95.18
2022-10-23T10:21:22.572Z,95.64
2022-10-23T10:24:27.286Z,95.44
2022-10-23T10:27:09.682Z,94.67
2022-10-23T10:33:22.057Z,94.46
2022-10-23T10:36:13.510Z,93.96
2022-10-23T10:38:52.846Z,94.23
2022-10-23T10:41:33.116Z,93.87
2022-10-23T10:44:14.853Z,94.05
2022-10-23T10:46:48.099Z,93.49
2022-10-23T10:49:38.235Z,93.37
2022-10-23T10:52:33.899Z,92.94
2022-10-23T10:55:32.170Z,92.44
2022-10-23T10:58:23.449Z,93.15
2022-10-23T11:00:55.810Z,92.92
2022-10-23T11:03:39.820Z,92.42
2022-10-23T11:06:14.902Z,92.56
2022-10-23T11:08:56.249Z,92.20
2022-10-23T11:11:34.794Z,92.46
2022-10-23T11:14:02.247Z,92.46
2022-10-23T11:16:36.314Z,91.65
2022-10-23T11:19:24.871Z,91.89
2022-10-23T11:22:05.097Z,91.77
2022-10-23T11:24:58.498Z,92.04
2022-10-23T11:27:54.377Z,91.20
2022-10-23T11:30:31.007Z,91.43
2022-10-23T11:33:19.166Z,90.52
2022-10-23T11:35:57.370Z,90.92
2022-10-23T11:38:36.770Z,90.11
2022-10-23T11:41:07.022Z,88.78
2022-10-23T11:43:46.517Z,88.22
2022-10-23T11:46:15.848Z,88.11
2022-10-23T11:48:44.255Z,86.85
2022-10-23T11:51:25.955Z,86.77
2022-10-23T11:53:52.450Z,86.23
2022-10-23T11:56:21.820Z,85.54
2022-10-23T11:58:57.304Z,84.83
2022-10-23T12:01:45.588Z,85.41
2022-10-23T12:04:15.143Z,84.50
2022-10-23T12:06:45.466Z,84.08
2022-10-23T12:09:30.042Z,83.56
2022-10-23T12:12:08.717Z,83.80
2022-10-23T12:14:40.967Z,83.43
2022-10-23T12:17:22.353Z,83.80
2022-10-23T12:20:09.130Z,84.01
2022-10-23T12:23:05.948Z,83.73
2022-10-23T12:26:01.425Z,83.06
2022-10-23T12:28:44.747Z,82.48
2022-10-23T12:31:47.791Z,82.46
2022-10-23T12:34:51.578Z,83.09
2022-10-23T12:37:51.526Z,82.78
2022-10-23T12:40:18.022Z,82.06
2022-10-23T12:42:53.954Z,82.46
2022-10-23T12:45:27.417Z,82.84
2022-10-23T12:47:54.613Z,82.64
2022-10-23T12:50:25.562Z,82.82
2022-10-23T12:53:03.522Z,83.04
2022-10-23T12:56:05.733Z,82.95
2022-10-23T12:58:34.626Z,82.50
2022-10-23T13:01:04.291Z,81.71
2022-10-23T13:03:33.158Z,82.84
2022-10-23T13:06:04.126Z,81.95
2022-10-23T13:08:41.778Z,81.49
2022-10-23T13:11:12.111Z,81.89
2022-10-23T13:13:40.573Z,81.60
2022-10-23T13:16:15.142Z,81.30
2022-10-23T13:18:42.336Z,81.63
2022-10-23T13:21:17.751Z,81.51
2022-10-23T13:23:44.447Z,81.62
2022-10-23T13:26:34.141Z,81.50
2022-10-23T13:29:08.752Z,81.33
2022-10-23T13:31:36.246Z,81.83
2022-10-23T13:34:02.591Z,81.70
2022-10-23T13:36:35.880Z,81.73
2022-10-23T13:39:14.774Z,81.00
2022-10-23T13:41:43.677Z,81.20
2022-10-23T13:44:17.997Z,80.83
2022-10-23T13:46:45.039Z,80.32
2022-10-23T13:49:11.582Z,79.66
2022-10-23T13:51:55.599Z,80.97
2022-10-23T13:54:25.947Z,79.64
2022-10-23T13:56:54.131Z,80.08
2022-10-23T13:59:21.119Z,80.02
2022-10-23T14:01:49.319Z,80.55
2022-10-23T14:04:17.391Z,80.30
2022-10-23T14:06:44.459Z,80.32
2022-10-23T14:09:16.171Z,79.98
2022-10-23T14:11:42.933Z,80.36
2022-10-23T14:14:09.581Z,80.13
2022-10-23T14:16:36.211Z,80.38
2022-10-23T14:19:03.013Z,80.17
2022-10-23T14:21:29.452Z,79.99
2022-10-23T14:23:55.959Z,80.42
2022-10-23T14:26:25.613Z,80.52
2022-10-23T14:28:53.840Z,80.24
2022-10-23T14:31:20.585Z,80.06
2022-10-23T14:33:52.161Z,79.33
2022-10-23T14:38:54.807Z,78.88
2022-10-23T14:41:22.118Z,79.17
2022-10-23T14:43:48.585Z,78.96
2022-10-23T14:46:20.453Z,79.38
2022-10-23T14:48:50.962Z,79.81
2022-10-23T14:51:27.514Z,80.00
2022-10-23T14:53:58.851Z,80.04
2022-10-23T14:56:26.032Z,80.18
2022-10-23T14:58:52.597Z,79.95
2022-10-23T15:01:19.572Z,80.31
2022-10-23T15:03:46.245Z,80.42
2022-10-23T15:06:16.041Z,80.56
2022-10-23T15:08:44.761Z,80.90
2022-10-23T15:11:12.668Z,80.99
2022-10-23T15:13:42.055Z,81.14
2022-10-23T15:16:13.424Z,81.21
2022-10-23T15:18:40.101Z,81.35
2022-10-23T15:21:08.355Z,81.97
2022-10-23T15:23:37.909Z,82.17
2022-10-23T15:26:11.603Z,82.59
2022-10-23T15:28:38.457Z,83.15
2022-10-23T15:31:05.988Z,83.56
2022-10-23T15:33:32.472Z,83.77
2022-10-23T15:35:58.902Z,83.94
2022-10-23T15:38:26.103Z,84.64
2022-10-23T15:40:58.367Z,84.79
2022-10-23T15:43:24.876Z,85.14
2022-10-23T15:45:51.351Z,85.25
2022-10-23T15:48:17.836Z,85.52
2022-10-23T15:50:44.366Z,85.82
2022-10-23T15:53:10.848Z,85.84
2022-10-23T15:55:38.794Z,86.26
2022-10-23T15:58:05.922Z,86.07
2022-10-23T16:00:35.904Z,86.61
2022-10-23T16:03:02.709Z,86.46
2022-10-23T16:05:29.249Z,86.54
2022-10-23T16:07:55.724Z,86.64
2022-10-23T16:10:26.118Z,87.02
2022-10-23T16:12:53.297Z,86.94
2022-10-23T16:15:20.011Z,87.30
2022-10-23T16:17:46.697Z,87.13
2022-10-23T16:20:13.227Z,87.62
2022-10-23T16:22:42.684Z,87.60
2022-10-23T16:25:11.391Z,87.52
2022-10-23T16:27:37.861Z,87.53
2022-10-23T16:30:07.596Z,87.39
2022-10-23T16:32:34.057Z,87.46
2022-10-23T16:35:01.142Z,87.69
2022-10-23T16:37:27.708Z,87.75
2022-10-23T16:39:54.274Z,88.07
2022-10-23T16:42:20.781Z,88.36
2022-10-23T16:44:48.272Z,88.09
2022-10-23T16:47:14.784Z,88.18
2022-10-23T16:49:41.404Z,88.17
2022-10-23T16:52:07.925Z,88.16
2022-10-23T16:54:34.543Z,88.60
2022-10-23T16:57:01.049Z,88.50
2022-10-23T16:59:27.587Z,88.48
2022-10-23T17:01:54.249Z,88.69
2022-10-23T17:04:20.826Z,88.60
2022-10-23T17:20:40.455Z,89.11
2022-10-23T17:23:06.945Z,89.42
2022-10-23T17:25:33.787Z,89.67
2022-10-23T17:33:05.633Z,89.89
2022-10-23T17:43:47.032Z,90.34
2022-10-23T17:57:57.897Z,90.01
2022-10-23T18:16:03.871Z,89.97
2022-10-23T18:18:30.639Z,90.06
2022-10-23T18:23:52.866Z,90.03
2022-10-23T18:41:54.392Z,89.36
2022-10-23T18:48:28.576Z,89.32
2022-10-23T18:55:28.588Z,89.50
2022-10-23T19:05:45.113Z,89.66
2022-10-23T19:25:48.449Z,92.24
2022-10-23T19:28:15.122Z,93.34
2022-10-23T19:30:41.609Z,93.30
2022-10-23T19:33:42.680Z,93.00
2022-10-23T19:40:49.929Z,93.41
2022-10-23T20:19:07.846Z,94.72
2022-10-23T20:22:17.736Z,94.65
2022-10-23T20:24:44.385Z,94.42
2022-10-23T20:27:13.693Z,92.96
2022-10-23T20:33:44.112Z,91.55
2022-10-23T20:36:32.277Z,90.75
2022-10-23T20:39:01.483Z,90.00
2022-10-23T20:41:28.967Z,89.76
2022-10-23T20:43:56.285Z,89.50
2022-10-23T20:58:44.516Z,89.16
2022-10-23T21:09:30.811Z,89.48
2022-10-23T21:11:58.288Z,89.25
2022-10-23T21:14:24.889Z,89.51
2022-10-23T21:16:51.840Z,89.71
2022-10-23T21:59:37.659Z,90.48
2022-10-23T22:06:30.552Z,90.62
2022-10-23T22:32:45.972Z,91.35
2022-10-23T22:47:15.428Z,93.60
2022-10-23T23:07:56.406Z,93.60
2022-10-23T23:10:23.029Z,93.42
2022-10-23T23:12:52.746Z,93.36
2022-10-23T23:23:30.759Z,92.98
2022-10-23T23:49:52.671Z,94.92
2022-10-23T23:56:46.525Z,94.49
2022-10-23T23:59:12.965Z,94.32
